Time;durP1;ratioP1;P1;durP2;ratioP2;P2;SDS_P1;SDS_P2;PMS_P1;PMS_P2;Temp;Humidity;BMP_temperature;BMP_pressure;BME280_temperature;BME280_humidity;BME280_pressure;Samples;Min_cycle;Max_cycle;Signal;HPM_P1;HPM_P2
2023/09/04 00:01:36;;;;;;;;;;;;;;;25.37;35.12;101179.75;5090531;28;19916;-65
2023/09/04 00:04:03;;;;;;;;;;;;;;;25.35;35.21;101180.00;5085473;28;19920;-65
2023/09/04 00:06:28;;;;;;;;;;;;;;;25.36;35.00;101186.34;5094799;28;19912;-65
2023/09/04 00:08:57;;;;;;;;;;;;;;;25.37;35.32;101196.25;5094631;28;19961;-65
2023/09/04 00:11:23;;;;;;;;;;;;;;;25.39;34.97;101194.03;5094408;28;19934;-65
2023/09/04 00:13:48;;;;;;;;;;;;;;;25.39;35.33;101189.38;5094577;28;19912;-65
2023/09/04 00:16:14;;;;;;;;;;;;;;;25.36;35.40;101184.44;5094499;28;19923;-65
2023/09/04 00:18:40;;;;;;;;;;;;;;;25.33;35.25;101182.22;5094448;28;19916;-65
2023/09/04 00:21:06;;;;;;;;;;;;;;;25.35;35.05;101182.75;5094275;28;19919;-65
2023/09/04 00:23:31;;;;;;;;;;;;;;;25.33;35.21;101184.97;5093039;28;19912;-65
2023/09/04 00:25:56;;;;;;;;;;;;;;;25.31;35.29;101178.91;5094160;28;19918;-66
2023/09/04 00:28:22;;;;;;;;;;;;;;;25.39;35.28;101180.28;5094013;28;20365;-65
2023/09/04 00:30:48;;;;;;;;;;;;;;;25.37;35.58;101175.09;5094255;28;19912;-65
2023/09/04 00:33:13;;;;;;;;;;;;;;;25.42;35.42;101179.75;5093716;28;19938;-65
2023/09/04 00:35:38;;;;;;;;;;;;;;;25.44;35.68;101167.34;5093284;28;20364;-64
2023/09/04 00:38:04;;;;;;;;;;;;;;;25.44;35.91;101174.78;5073609;28;19925;-64
2023/09/04 00:40:29;;;;;;;;;;;;;;;25.48;35.63;101170.38;5073823;28;19912;-65
2023/09/04 00:42:54;;;;;;;;;;;;;;;25.51;35.78;101172.59;5073524;28;19917;-65
2023/09/04 00:45:20;;;;;;;;;;;;;;;25.47;35.69;101180.56;5073454;28;19978;-65
2023/09/04 00:47:45;;;;;;;;;;;;;;;25.43;35.81;101173.16;5072911;28;19919;-65
2023/09/04 00:50:14;;;;;;;;;;;;;;;25.43;35.65;101186.91;5092519;28;20523;-65
2023/09/04 00:52:41;;;;;;;;;;;;;;;25.44;35.56;101185.78;5093484;28;20338;-65
2023/09/04 00:55:06;;;;;;;;;;;;;;;25.42;35.64;101186.06;5096578;28;20456;-65
2023/09/04 00:57:33;;;;;;;;;;;;;;;25.43;35.79;101184.97;5113541;28;19916;-65
2023/09/04 01:00:01;;;;;;;;;;;;;;;25.40;35.61;101184.69;5104834;28;19912;-65
2023/09/04 01:02:27;;;;;;;;;;;;;;;25.40;35.53;101191.00;5082234;28;20011;-65
2023/09/04 01:04:52;;;;;;;;;;;;;;;25.38;35.82;101195.97;5073020;28;20004;-65
2023/09/04 01:07:17;;;;;;;;;;;;;;;25.42;35.85;101202.56;5073085;28;20552;-65
2023/09/04 01:09:43;;;;;;;;;;;;;;;25.41;35.65;101203.69;5073286;28;20070;-65
2023/09/04 01:12:16;;;;;;;;;;;;;;;25.41;35.68;101205.63;5073034;28;19923;-65
2023/09/04 01:14:45;;;;;;;;;;;;;;;25.40;35.94;101210.25;5073285;28;19919;-65
2023/09/04 01:17:10;;;;;;;;;;;;;;;25.39;35.54;101203.13;5073020;28;19913;-65
2023/09/04 01:19:37;;;;;;;;;;;;;;;25.37;35.79;101205.34;5073231;28;20635;-65
2023/09/04 01:22:05;;;;;;;;;;;;;;;25.34;35.38;101203.13;5079795;28;19923;-65
2023/09/04 01:24:30;;;;;;;;;;;;;;;25.33;35.58;101201.47;5093169;28;19916;-65
2023/09/04 01:27:05;;;;;;;;;;;;;;;25.32;35.50;101199.00;5093311;28;20258;-65
2023/09/04 01:29:33;;;;;;;;;;;;;;;25.33;35.91;101206.16;5093081;28;19912;-65
2023/09/04 01:31:59;;;;;;;;;;;;;;;25.29;35.56;101206.69;5092962;28;19965;-65
2023/09/04 01:34:25;;;;;;;;;;;;;;;25.26;35.49;101207.25;5093093;28;19912;-65
2023/09/04 01:36:54;;;;;;;;;;;;;;;25.27;35.83;101213.56;5092110;28;19958;-65
2023/09/04 01:39:21;;;;;;;;;;;;;;;25.23;35.77;101216.03;5093136;28;19916;-66
2023/09/04 01:41:47;;;;;;;;;;;;;;;25.23;35.56;101218.78;5091082;28;19916;-65
2023/09/04 01:44:14;;;;;;;;;;;;;;;25.18;35.74;101212.44;5092933;28;19922;-64
2023/09/04 01:46:39;;;;;;;;;;;;;;;25.18;35.92;101212.44;5093085;28;19908;-65
2023/09/04 01:49:04;;;;;;;;;;;;;;;25.19;35.75;101216.84;5093109;28;19915;-65
2023/09/04 01:51:30;;;;;;;;;;;;;;;25.25;35.81;101215.78;5092895;28;19995;-65
2023/09/04 01:53:55;;;;;;;;;;;;;;;25.23;36.10;101215.19;5092336;28;19913;-65
2023/09/04 01:56:20;;;;;;;;;;;;;;;25.25;35.94;101213.03;5097145;28;19919;-66
2023/09/04 01:58:45;;;;;;;;;;;;;;;25.22;36.59;101202.53;5092779;28;19999;-66
2023/09/04 02:01:14;;;;;;;;;;;;;;;25.27;36.19;101208.88;5096757;28;19946;-66
2023/09/04 02:03:44;;;;;;;;;;;;;;;25.32;36.41;101210.00;5076966;28;19927;-66
2023/09/04 02:06:09;;;;;;;;;;;;;;;25.31;36.35;101214.66;5076905;28;19919;-65
2023/09/04 02:08:34;;;;;;;;;;;;;;;25.38;36.33;101208.91;5077127;28;19916;-66
2023/09/04 02:11:00;;;;;;;;;;;;;;;25.34;36.91;101213.31;5058804;28;20420;-66
2023/09/04 02:13:25;;;;;;;;;;;;;;;25.35;36.65;101209.44;5076971;28;19914;-66
2023/09/04 02:15:50;;;;;;;;;;;;;;;25.36;36.56;101205.59;5076737;28;20423;-66
2023/09/04 02:18:16;;;;;;;;;;;;;;;25.37;36.26;101212.75;5082036;28;19916;-66
2023/09/04 02:20:42;;;;;;;;;;;;;;;25.42;36.54;101213.56;5096876;28;19913;-67
2023/09/04 02:23:07;;;;;;;;;;;;;;;25.41;35.99;101211.13;5096770;28;20006;-67
2023/09/04 02:25:32;;;;;;;;;;;;;;;25.39;36.20;101207.78;5096854;28;19923;-66
2023/09/04 02:27:57;;;;;;;;;;;;;;;25.38;36.03;101208.91;5096453;28;20423;-66
2023/09/04 02:30:23;;;;;;;;;;;;;;;25.40;36.37;101212.19;5096800;28;19920;-66
2023/09/04 02:32:48;;;;;;;;;;;;;;;25.37;35.89;101216.34;5096911;28;20011;-65
2023/09/04 02:35:13;;;;;;;;;;;;;;;25.34;36.07;101219.63;5096310;28;19916;-65
2023/09/04 02:37:39;;;;;;;;;;;;;;;25.32;36.05;101232.00;5096355;28;20006;-65
2023/09/04 02:40:06;;;;;;;;;;;;;;;25.36;35.76;101241.34;5096423;28;19912;-65
2023/09/04 02:42:33;;;;;;;;;;;;;;;25.43;35.37;101250.16;5096220;28;19922;-66
2023/09/04 02:44:58;;;;;;;;;;;;;;;25.27;36.57;101252.06;5094930;28;19912;-64
2023/09/04 02:47:23;;;;;;;;;;;;;;;25.18;36.42;101262.72;5095783;28;19912;-64
2023/09/04 02:49:49;;;;;;;;;;;;;;;25.15;36.81;101243.19;5095943;28;20340;-65
2023/09/04 02:52:14;;;;;;;;;;;;;;;25.17;36.66;101241.84;5095411;28;19920;-64
2023/09/04 02:54:40;;;;;;;;;;;;;;;25.17;36.56;101238.28;5094164;28;19912;-65
2023/09/04 02:57:06;;;;;;;;;;;;;;;25.18;37.09;101238.00;5100808;28;19964;-64
2023/09/04 02:59:33;;;;;;;;;;;;;;;25.21;36.80;101256.69;5094788;28;19920;-64
2023/09/04 03:01:58;;;;;;;;;;;;;;;25.25;36.63;101255.06;5089050;28;20042;-65
2023/09/04 03:04:23;;;;;;;;;;;;;;;25.30;36.63;101246.03;5057518;28;20003;-65
2023/09/04 03:06:49;;;;;;;;;;;;;;;25.28;37.08;101239.97;5075740;28;19912;-65
2023/09/04 03:09:15;;;;;;;;;;;;;;;25.29;36.92;101236.13;5075511;28;19912;-66
2023/09/04 03:11:41;;;;;;;;;;;;;;;25.25;37.50;101243.25;5075369;28;19982;-64
2023/09/04 03:14:06;;;;;;;;;;;;;;;25.18;37.73;101251.72;5077317;28;20024;-65
2023/09/04 03:16:31;;;;;;;;;;;;;;;25.17;38.08;101257.53;5096209;28;19912;-66
2023/09/04 03:18:57;;;;;;;;;;;;;;;25.03;38.59;101252.53;5096312;28;20015;-66
2023/09/04 03:21:22;;;;;;;;;;;;;;;25.00;38.30;101269.59;5096083;28;19918;-65
2023/09/04 03:23:50;;;;;;;;;;;;;;;25.02;38.18;101274.81;5094909;28;19926;-65
2023/09/04 03:26:16;;;;;;;;;;;;;;;25.16;37.60;101264.94;5097091;28;19912;-66
2023/09/04 03:28:42;;;;;;;;;;;;;;;25.24;38.10;101275.44;5095705;28;19912;-66
2023/09/04 03:31:14;;;;;;;;;;;;;;;25.28;37.42;101272.97;5097010;28;19961;-65
2023/09/04 03:33:39;;;;;;;;;;;;;;;25.37;37.41;101264.97;5096998;28;19933;-66
2023/09/04 03:36:05;;;;;;;;;;;;;;;25.43;36.97;101255.66;5085923;28;19920;-65
2023/09/04 03:38:30;;;;;;;;;;;;;;;25.50;37.06;101251.53;5091721;28;19928;-66
2023/09/04 03:40:55;;;;;;;;;;;;;;;25.50;36.85;101253.44;5095317;28;19916;-65
2023/09/04 03:43:21;;;;;;;;;;;;;;;25.48;37.02;101252.88;5095188;28;19935;-65
2023/09/04 03:45:46;;;;;;;;;;;;;;;25.46;36.74;101255.94;5095217;28;19916;-65
2023/09/04 03:48:11;;;;;;;;;;;;;;;25.44;36.73;101263.59;5095025;28;19916;-65
2023/09/04 03:50:37;;;;;;;;;;;;;;;25.43;36.91;101264.72;5094899;28;19912;-65
2023/09/04 03:53:03;;;;;;;;;;;;;;;25.44;36.68;101268.28;5094981;28;19912;-65
2023/09/04 03:55:28;;;;;;;;;;;;;;;25.43;36.65;101261.97;5101143;28;19919;-65
2023/09/04 03:57:53;;;;;;;;;;;;;;;25.45;36.40;101262.53;5113739;28;20299;-65
2023/09/04 04:00:19;;;;;;;;;;;;;;;25.46;36.61;101275.19;5115183;28;20323;-64
2023/09/04 04:02:45;;;;;;;;;;;;;;;25.50;36.35;101289.19;5101314;28;19926;-65
2023/09/04 04:05:10;;;;;;;;;;;;;;;25.52;36.34;101281.53;5094501;28;19920;-65
2023/09/04 04:07:36;;;;;;;;;;;;;;;25.51;36.39;101288.09;5094743;28;19912;-65
2023/09/04 04:10:01;;;;;;;;;;;;;;;25.49;36.60;101291.13;5090902;28;19912;-64
2023/09/04 04:12:26;;;;;;;;;;;;;;;25.46;36.57;101297.19;5093395;28;20388;-65
2023/09/04 04:14:57;;;;;;;;;;;;;;;25.46;36.31;101291.69;5094768;28;20311;-64
2023/09/04 04:17:23;;;;;;;;;;;;;;;25.47;36.62;101285.06;5076558;28;20023;-65
2023/09/04 04:19:50;;;;;;;;;;;;;;;25.50;36.35;101279.03;5094631;28;19916;-64
2023/09/04 04:22:16;;;;;;;;;;;;;;;25.50;36.40;101290.03;5092329;28;19918;-65
2023/09/04 04:24:41;;;;;;;;;;;;;;;25.54;36.55;101290.31;5094524;28;20010;-64
2023/09/04 04:27:08;;;;;;;;;;;;;;;25.57;36.41;101287.00;5094278;28;19912;-65
2023/09/04 04:29:33;;;;;;;;;;;;;;;25.58;36.36;101282.34;5094570;28;19990;-65
2023/09/04 04:31:59;;;;;;;;;;;;;;;25.57;36.44;101275.19;5094345;28;19912;-65
2023/09/04 04:34:24;;;;;;;;;;;;;;;25.59;36.17;101278.47;5094286;28;19916;-65
2023/09/04 04:36:53;;;;;;;;;;;;;;;25.53;36.64;101277.66;5075934;28;20335;-65
2023/09/04 04:39:18;;;;;;;;;;;;;;;25.53;36.56;101276.84;5073900;28;19962;-66
2023/09/04 04:41:43;;;;;;;;;;;;;;;25.57;36.41;101264.19;5092764;28;19999;-66
2023/09/04 04:44:09;;;;;;;;;;;;;;;25.59;36.20;101282.03;5094304;28;19919;-66
2023/09/04 04:46:34;;;;;;;;;;;;;;;25.60;36.19;101271.88;5094143;28;19912;-66
2023/09/04 04:48:59;;;;;;;;;;;;;;;25.61;36.51;101268.03;5093896;28;20371;-66
2023/09/04 04:51:24;;;;;;;;;;;;;;;25.58;36.55;101269.41;5092737;28;20303;-65
2023/09/04 04:53:50;;;;;;;;;;;;;;;25.59;36.32;101275.72;5091981;28;20003;-65
2023/09/04 04:56:15;;;;;;;;;;;;;;;25.60;36.23;101291.16;5102726;28;19992;-65
2023/09/04 04:58:40;;;;;;;;;;;;;;;25.57;36.22;101287.00;5114030;28;19915;-66
2023/09/04 05:01:06;;;;;;;;;;;;;;;25.58;36.46;101291.41;5114031;28;20007;-65
2023/09/04 05:03:32;;;;;;;;;;;;;;;25.61;36.15;101293.63;5086488;28;20342;-65
2023/09/04 05:05:57;;;;;;;;;;;;;;;25.66;36.51;101301.03;5089397;28;19916;-65
2023/09/04 05:08:23;;;;;;;;;;;;;;;25.65;36.30;101308.47;5093605;28;20342;-66
2023/09/04 05:10:57;;;;;;;;;;;;;;;25.67;36.26;101294.47;5093679;28;19912;-66
2023/09/04 05:13:24;;;;;;;;;;;;;;;25.37;37.01;101297.97;5093010;28;20293;-65
2023/09/04 05:15:49;;;;;;;;;;;;;;;25.65;36.82;101289.22;5093625;28;19939;-66
2023/09/04 05:18:15;;;;;;;;;;;;;;;25.78;36.24;101298.00;5093665;28;19923;-65
2023/09/04 05:20:40;;;;;;;;;;;;;;;25.84;36.10;101306.00;5093290;28;19928;-65
2023/09/04 05:23:05;;;;;;;;;;;;;;;25.93;35.98;101297.22;5093241;28;20364;-65
2023/09/04 05:25:30;;;;;;;;;;;;;;;26.01;35.96;101313.19;5093256;28;20250;-65
2023/09/04 05:27:56;;;;;;;;;;;;;;;26.07;35.76;101312.06;5093428;28;19946;-66
2023/09/04 05:30:21;;;;;;;;;;;;;;;26.10;35.79;101308.75;5093338;28;20377;-65
2023/09/04 05:32:46;;;;;;;;;;;;;;;26.14;35.67;101317.28;5093159;28;20329;-66
2023/09/04 05:35:12;;;;;;;;;;;;;;;26.11;36.12;101335.19;5092040;28;20303;-66
2023/09/04 05:37:37;;;;;;;;;;;;;;;26.18;36.13;101326.66;5093043;28;20007;-65
2023/09/04 05:40:04;;;;;;;;;;;;;;;26.24;35.72;101337.38;5092965;28;19920;-66
2023/09/04 05:42:30;;;;;;;;;;;;;;;26.30;35.70;101351.97;5092589;28;19948;-66
2023/09/04 05:44:55;;;;;;;;;;;;;;;26.36;35.69;101353.59;5092858;28;20367;-66
2023/09/04 05:47:20;;;;;;;;;;;;;;;26.44;35.57;101344.75;5092898;28;19965;-66
2023/09/04 05:49:45;;;;;;;;;;;;;;;26.46;35.61;101337.03;5092966;28;19913;-65
2023/09/04 05:52:11;;;;;;;;;;;;;;;26.54;35.68;101338.41;5092872;28;19912;-66
2023/09/04 05:54:36;;;;;;;;;;;;;;;26.64;35.37;101343.91;5092322;28;19943;-65
2023/09/04 05:57:01;;;;;;;;;;;;;;;26.70;35.25;101360.44;5092700;28;19923;-65
2023/09/04 05:59:26;;;;;;;;;;;;;;;26.74;35.38;101361.53;5092791;28;20345;-66
2023/09/04 06:01:52;;;;;;;;;;;;;;;26.79;35.32;101354.06;5086487;28;19962;-66
2023/09/04 06:04:17;;;;;;;;;;;;;;;26.82;35.04;101356.28;5087286;28;19920;-66
2023/09/04 06:06:42;;;;;;;;;;;;;;;26.76;35.45;101357.38;5092826;28;20113;-66
2023/09/04 06:09:07;;;;;;;;;;;;;;;26.82;35.33;101361.78;5092252;28;19916;-66
2023/09/04 06:11:33;;;;;;;;;;;;;;;26.83;35.56;101368.94;5092635;28;20023;-66
2023/09/04 06:13:58;;;;;;;;;;;;;;;26.83;35.53;101374.44;5092559;28;19919;-66
2023/09/04 06:16:23;;;;;;;;;;;;;;;26.97;35.20;101371.91;5092351;28;19913;-66
2023/09/04 06:18:49;;;;;;;;;;;;;;;27.04;35.33;101371.59;5092808;28;19923;-67
2023/09/04 06:21:14;;;;;;;;;;;;;;;27.06;35.23;101377.69;5092827;28;19916;-66
2023/09/04 06:23:39;;;;;;;;;;;;;;;27.11;35.06;101376.81;5092647;28;19919;-66
2023/09/04 06:26:04;;;;;;;;;;;;;;;27.08;35.07;101369.09;5092411;28;19969;-66
2023/09/04 06:28:30;;;;;;;;;;;;;;;27.08;35.18;101375.47;5092753;28;19912;-66
2023/09/04 06:30:55;;;;;;;;;;;;;;;27.09;35.29;101376.28;5081466;28;19994;-66
2023/09/04 06:33:21;;;;;;;;;;;;;;;26.98;35.25;101379.06;5083000;28;19912;-66
2023/09/04 06:35:47;;;;;;;;;;;;;;;27.02;35.02;101371.91;5090198;28;19912;-66
2023/09/04 06:38:14;;;;;;;;;;;;;;;26.88;35.34;101392.91;5092532;28;19916;-66
2023/09/04 06:40:39;;;;;;;;;;;;;;;26.81;35.36;101395.13;5092449;28;19952;-66
2023/09/04 06:43:05;;;;;;;;;;;;;;;26.72;35.61;101399.56;5092302;28;19951;-66
2023/09/04 06:45:30;;;;;;;;;;;;;;;26.64;35.43;101392.69;5084166;28;19983;-67
2023/09/04 06:47:56;;;;;;;;;;;;;;;26.63;35.66;101415.84;5076094;28;19920;-65
2023/09/04 06:50:21;;;;;;;;;;;;;;;26.74;35.63;101416.66;5075902;28;19919;-65
2023/09/04 06:52:46;;;;;;;;;;;;;;;26.72;35.72;101414.16;5076083;28;19913;-65
2023/09/04 06:55:12;;;;;;;;;;;;;;;26.83;35.25;101409.44;5084485;28;19918;-65
2023/09/04 06:57:37;;;;;;;;;;;;;;;26.79;35.64;101411.94;5116189;28;20829;-65
2023/09/04 07:00:06;;;;;;;;;;;;;;;26.81;35.64;101408.91;5105246;28;20271;-66
2023/09/04 07:02:32;;;;;;;;;;;;;;;26.74;35.90;101411.13;5083914;28;19919;-65
2023/09/04 07:04:57;;;;;;;;;;;;;;;26.91;35.62;101408.03;5075406;28;19921;-65
2023/09/04 07:07:22;;;;;;;;;;;;;;;26.83;35.80;101412.22;5075288;28;20377;-65
2023/09/04 07:09:48;;;;;;;;;;;;;;;26.87;35.55;101399.50;5086298;28;20284;-65
2023/09/04 07:12:15;;;;;;;;;;;;;;;26.97;35.70;101410.53;5095180;28;19919;-66
2023/09/04 07:14:40;;;;;;;;;;;;;;;27.01;35.44;101411.59;5095494;28;19912;-65
2023/09/04 07:17:05;;;;;;;;;;;;;;;27.17;35.29;101401.34;5094333;28;20502;-66
2023/09/04 07:19:31;;;;;;;;;;;;;;;27.27;35.35;101405.19;5095259;28;19916;-63
2023/09/04 07:21:56;;;;;;;;;;;;;;;27.36;35.02;101406.25;5095242;28;20014;-63
2023/09/04 07:24:21;;;;;;;;;;;;;;;27.39;35.31;101409.25;5095487;28;19916;-62
2023/09/04 07:26:46;;;;;;;;;;;;;;;27.46;35.21;101410.88;5095529;28;20000;-65
2023/09/04 07:29:12;;;;;;;;;;;;;;;27.49;35.04;101393.75;5095223;28;19912;-64
2023/09/04 07:31:37;;;;;;;;;;;;;;;27.56;34.98;101385.97;5094894;28;19978;-63
2023/09/04 07:34:02;;;;;;;;;;;;;;;27.50;34.91;101387.94;5095476;28;19920;-64
2023/09/04 07:36:28;;;;;;;;;;;;;;;27.63;34.69;101383.72;5095404;28;20372;-64
2023/09/04 07:38:54;;;;;;;;;;;;;;;27.63;34.71;101380.16;5095393;28;20316;-64
2023/09/04 07:41:19;;;;;;;;;;;;;;;27.68;34.80;101389.22;5095279;28;19912;-63
2023/09/04 07:43:44;;;;;;;;;;;;;;;27.65;34.92;101400.00;5094895;28;19912;-63
2023/09/04 07:46:09;;;;;;;;;;;;;;;27.76;34.82;101393.31;5094821;28;19947;-64
2023/09/04 07:48:35;;;;;;;;;;;;;;;27.67;34.92;101398.59;5094896;28;19917;-63
2023/09/04 07:51:05;;;;;;;;;;;;;;;27.69;34.47;101404.69;5094578;28;20407;-63
2023/09/04 07:53:30;;;;;;;;;;;;;;;27.69;34.52;101396.41;5094676;28;19911;-63
2023/09/04 07:55:55;;;;;;;;;;;;;;;27.54;34.75;101390.97;5096893;28;19919;-63
2023/09/04 07:58:20;;;;;;;;;;;;;;;27.36;35.11;101381.44;5093646;28;19917;-63
2023/09/04 08:00:46;;;;;;;;;;;;;;;27.39;34.90;101376.13;5094813;28;20037;-63
2023/09/04 08:03:12;;;;;;;;;;;;;;;27.35;34.81;101374.25;5077321;28;19912;-63
2023/09/04 08:05:38;;;;;;;;;;;;;;;27.49;34.75;101375.28;5074644;28;19912;-63
2023/09/04 08:08:08;;;;;;;;;;;;;;;27.46;34.92;101373.06;5074520;28;19923;-63
2023/09/04 08:10:33;;;;;;;;;;;;;;;27.57;34.56;101382.94;5094210;28;19920;-63
2023/09/04 08:12:58;;;;;;;;;;;;;;;27.61;34.34;101395.03;5093735;28;19918;-63
2023/09/04 08:15:24;;;;;;;;;;;;;;;27.49;34.62;101390.97;5074610;28;20268;-63
2023/09/04 08:17:49;;;;;;;;;;;;;;;27.48;34.74;101390.16;5074818;28;19954;-63
2023/09/04 08:20:14;;;;;;;;;;;;;;;27.64;34.62;101392.81;5094725;28;20356;-63
2023/09/04 08:22:39;;;;;;;;;;;;;;;27.53;34.41;101392.91;5093192;28;20341;-64
2023/09/04 08:25:05;;;;;;;;;;;;;;;27.51;34.41;101392.38;5094385;28;20280;-63
2023/09/04 08:27:30;;;;;;;;;;;;;;;27.64;34.25;101393.66;5094294;28;19934;-63
2023/09/04 08:29:55;;;;;;;;;;;;;;;27.75;34.31;101398.00;5094098;28;19985;-63
2023/09/04 08:32:20;;;;;;;;;;;;;;;27.64;33.92;101410.22;5094202;28;19912;-63
2023/09/04 08:34:46;;;;;;;;;;;;;;;27.72;34.08;101404.09;5094070;28;19912;-63
2023/09/04 08:37:11;;;;;;;;;;;;;;;27.84;34.25;101403.75;5094450;28;19919;-63
2023/09/04 08:39:36;;;;;;;;;;;;;;;27.89;34.25;101400.13;5093773;28;20003;-63
2023/09/04 08:42:07;;;;;;;;;;;;;;;27.80;34.14;101394.38;5093850;28;19921;-63
2023/09/04 08:44:34;;;;;;;;;;;;;;;27.83;33.98;101388.28;5094253;28;20348;-63
2023/09/04 08:46:59;;;;;;;;;;;;;;;27.94;34.23;101387.13;5093840;28;20380;-63
2023/09/04 08:49:25;;;;;;;;;;;;;;;28.04;34.06;101386.22;5094072;28;19912;-63
2023/09/04 08:51:51;;;;;;;;;;;;;;;28.10;34.25;101379.53;5093603;28;20418;-63
2023/09/04 08:54:17;;;;;;;;;;;;;;;28.14;33.92;101388.06;5093101;28;19926;-63
2023/09/04 08:56:42;;;;;;;;;;;;;;;28.10;33.92;101381.47;5111225;28;19911;-64
2023/09/04 08:59:07;;;;;;;;;;;;;;;28.13;34.13;101375.38;5113911;28;20368;-64
2023/09/04 09:01:35;;;;;;;;;;;;;;;28.22;33.86;101368.09;5110218;28;19953;-63
2023/09/04 09:04:01;;;;;;;;;;;;;;;28.19;34.16;101375.03;5093304;28;19928;-64
2023/09/04 09:06:27;;;;;;;;;;;;;;;28.21;33.75;101363.69;5093707;28;19934;-64
2023/09/04 09:08:53;;;;;;;;;;;;;;;28.18;33.52;101367.84;5085027;28;20429;-63
2023/09/04 09:11:19;;;;;;;;;;;;;;;28.24;33.84;101352.06;5072060;28;19917;-64
2023/09/04 09:13:45;;;;;;;;;;;;;;;28.33;34.15;101343.97;5073192;28;20426;-63
2023/09/04 09:16:16;;;;;;;;;;;;;;;28.33;33.74;101355.84;5090980;28;20379;-64
2023/09/04 09:18:42;;;;;;;;;;;;;;;28.42;33.63;101352.41;5093478;28;19939;-64
2023/09/04 09:21:19;;;;;;;;;;;;;;;28.47;33.75;101355.13;5093005;28;19912;-63
2023/09/04 09:23:45;;;;;;;;;;;;;;;28.51;33.65;101347.91;5078085;28;20365;-63
2023/09/04 09:26:10;;;;;;;;;;;;;;;28.30;33.12;101345.34;5081334;28;19931;-63
2023/09/04 09:28:36;;;;;;;;;;;;;;;28.50;33.69;101352.63;5093114;28;19923;-63
2023/09/04 09:31:01;;;;;;;;;;;;;;;28.46;33.66;101354.31;5093092;28;19912;-63
2023/09/04 09:33:27;;;;;;;;;;;;;;;28.56;33.51;101348.69;5092966;28;19919;-63
2023/09/04 09:35:53;;;;;;;;;;;;;;;28.77;33.23;101346.53;5091676;28;19912;-63
2023/09/04 09:38:18;;;;;;;;;;;;;;;28.89;33.18;101343.34;5072794;28;20285;-63
2023/09/04 09:40:44;;;;;;;;;;;;;;;28.93;32.69;101340.81;5072679;28;19923;-63
2023/09/04 09:43:09;;;;;;;;;;;;;;;29.07;33.19;101340.91;5072596;28;19924;-63
2023/09/04 09:45:35;;;;;;;;;;;;;;;29.22;33.05;101337.16;5072552;28;19913;-63
2023/09/04 09:48:11;;;;;;;;;;;;;;;29.42;32.56;101333.25;5076651;28;19935;-63
2023/09/04 09:50:39;;;;;;;;;;;;;;;29.62;32.15;101324.63;5092670;28;19920;-63
2023/09/04 09:53:05;;;;;;;;;;;;;;;29.71;32.30;101325.56;5092673;28;19915;-63
2023/09/04 09:55:31;;;;;;;;;;;;;;;29.79;32.23;101321.34;5099287;28;19912;-64
2023/09/04 09:57:58;;;;;;;;;;;;;;;29.99;32.52;101325.69;5113021;28;19916;-64
2023/09/04 10:00:24;;;;;;;;;;;;;;;30.05;31.01;101312.56;5113176;28;20636;-62
2023/09/04 10:02:50;;;;;;;;;;;;;;;30.12;31.90;101307.44;5098747;28;19912;-63
2023/09/04 10:05:15;;;;;;;;;;;;;;;30.06;31.10;101317.81;5093039;28;19931;-63
2023/09/04 10:07:42;;;;;;;;;;;;;;;30.15;31.33;101315.16;5093719;28;19913;-63
2023/09/04 10:10:07;;;;;;;;;;;;;;;30.16;31.33;101304.91;5093129;28;20070;-64
2023/09/04 10:12:35;;;;;;;;;;;;;;;30.21;31.29;101304.81;5092786;28;20490;-64
2023/09/04 10:15:01;;;;;;;;;;;;;;;30.25;31.38;101301.09;5092433;28;20533;-64
2023/09/04 10:17:32;;;;;;;;;;;;;;;30.36;31.57;101300.94;5092336;28;19937;-64
2023/09/04 10:20:00;;;;;;;;;;;;;;;30.38;31.37;101301.47;5092468;28;19923;-65
2023/09/04 10:22:30;;;;;;;;;;;;;;;30.42;31.98;101302.47;5096413;28;20351;-63
2023/09/04 10:25:00;;;;;;;;;;;;;;;30.47;31.72;101302.38;5080334;28;19916;-63
2023/09/04 10:27:26;;;;;;;;;;;;;;;30.54;31.83;101296.44;5074891;28;20369;-63
2023/09/04 10:30:01;;;;;;;;;;;;;;;30.65;31.48;101292.31;5076310;28;20010;-64
2023/09/04 10:32:27;;;;;;;;;;;;;;;30.83;30.79;101296.09;5076175;28;19919;-64
2023/09/04 10:34:52;;;;;;;;;;;;;;;31.05;31.30;101293.41;5076285;28;19948;-64
2023/09/04 10:37:18;;;;;;;;;;;;;;;31.35;31.32;101288.28;5076201;28;19947;-64
2023/09/04 10:39:43;;;;;;;;;;;;;;;31.75;30.48;101288.41;5076077;28;19927;-64
2023/09/04 10:42:11;;;;;;;;;;;;;;;32.17;30.10;101282.59;5075937;28;19919;-64
2023/09/04 10:44:53;;;;;;;;;;;;;;;32.36;29.94;101272.06;5083100;28;19916;-64
2023/09/04 10:47:19;;;;;;;;;;;;;;;32.50;29.35;101274.72;5096374;28;19912;-64
2023/09/04 10:49:44;;;;;;;;;;;;;;;32.73;29.48;101269.09;5096063;28;20456;-64
2023/09/04 10:52:10;;;;;;;;;;;;;;;33.17;29.43;101278.31;5096128;28;19912;-65
2023/09/04 10:54:36;;;;;;;;;;;;;;;33.51;28.12;101273.88;5095702;28;19912;-65
2023/09/04 10:57:05;;;;;;;;;;;;;;;33.63;27.76;101267.63;5115795;28;19933;-64
2023/09/04 10:59:49;;;;;;;;;;;;;;;33.84;28.21;101273.31;5116372;28;20491;-63
2023/09/04 11:02:28;;;;;;;;;;;;;;;33.89;27.45;101285.09;5106995;28;19920;-64
2023/09/04 11:04:54;;;;;;;;;;;;;;;33.94;26.06;101279.38;5095751;28;19927;-64
2023/09/04 11:07:19;;;;;;;;;;;;;;;34.11;26.96;101278.47;5095721;28;20234;-63
2023/09/04 11:09:45;;;;;;;;;;;;;;;34.23;26.57;101279.78;5095900;28;19912;-63
2023/09/04 11:12:11;;;;;;;;;;;;;;;34.30;25.64;101280.88;5095670;28;19919;-64
2023/09/04 11:14:44;;;;;;;;;;;;;;;34.48;26.69;101284.41;5095623;28;19912;-63
2023/09/04 11:17:09;;;;;;;;;;;;;;;34.67;26.29;101280.34;5096006;28;19994;-63
2023/09/04 11:19:34;;;;;;;;;;;;;;;34.86;26.38;101283.56;5095393;28;20448;-64
2023/09/04 11:21:59;;;;;;;;;;;;;;;34.92;25.76;101286.13;5095215;28;19912;-65
2023/09/04 11:24:25;;;;;;;;;;;;;;;35.03;24.60;101279.81;5081550;28;19970;-64
2023/09/04 11:26:50;;;;;;;;;;;;;;;35.07;25.16;101272.38;5074992;28;19920;-64
2023/09/04 11:29:16;;;;;;;;;;;;;;;35.36;25.21;101279.03;5075086;28;19965;-64
2023/09/04 11:31:42;;;;;;;;;;;;;;;35.15;23.58;101287.41;5074784;28;20380;-64
2023/09/04 11:34:07;;;;;;;;;;;;;;;35.31;24.52;101279.28;5073949;28;19935;-64
2023/09/04 11:36:36;;;;;;;;;;;;;;;35.52;25.19;101273.63;5075487;28;20334;-64
2023/09/04 11:39:05;;;;;;;;;;;;;;;35.52;24.25;101276.44;5093631;28;19920;-64
2023/09/04 11:41:30;;;;;;;;;;;;;;;35.49;24.01;101274.31;5095051;28;20349;-64
2023/09/04 11:43:55;;;;;;;;;;;;;;;35.61;25.13;101279.16;5095021;28;20011;-64
2023/09/04 11:46:21;;;;;;;;;;;;;;;35.86;25.78;101277.25;5095014;28;20547;-64
2023/09/04 11:48:46;;;;;;;;;;;;;;;35.97;24.69;101274.81;5094914;28;20283;-64
2023/09/04 11:51:11;;;;;;;;;;;;;;;36.06;24.00;101275.53;5095218;28;19912;-64
2023/09/04 11:53:37;;;;;;;;;;;;;;;36.26;24.78;101265.44;5094803;28;19959;-64
2023/09/04 11:56:03;;;;;;;;;;;;;;;36.50;24.34;101260.97;5106425;28;19955;-64
2023/09/04 11:58:29;;;;;;;;;;;;;;;36.70;24.36;101256.44;5115197;28;20334;-64
2023/09/04 12:00:54;;;;;;;;;;;;;;;36.94;23.96;101261.16;5115139;28;19947;-64
2023/09/04 12:03:20;;;;;;;;;;;;;;;36.89;23.07;101261.41;5096384;28;19963;-65
2023/09/04 12:05:47;;;;;;;;;;;;;;;36.99;23.57;101256.13;5094914;28;19912;-65
2023/09/04 12:08:12;;;;;;;;;;;;;;;37.03;23.30;101242.22;5094541;28;19919;-65
2023/09/04 12:10:37;;;;;;;;;;;;;;;37.24;22.41;101252.44;5094419;28;19912;-65
2023/09/04 12:13:03;;;;;;;;;;;;;;;37.35;23.39;101236.75;5094351;28;19968;-65
2023/09/04 12:15:31;;;;;;;;;;;;;;;37.53;23.45;101234.44;5094492;28;19920;-65
2023/09/04 12:18:03;;;;;;;;;;;;;;;37.61;22.46;101236.25;5094704;28;20300;-65
2023/09/04 12:20:33;;;;;;;;;;;;;;;37.94;22.82;101241.53;5094282;28;19916;-65
2023/09/04 12:22:59;;;;;;;;;;;;;;;38.11;21.71;101229.19;5089994;28;19962;-65
2023/09/04 12:25:37;;;;;;;;;;;;;;;38.24;20.53;101234.66;5074372;28;19912;-65
2023/09/04 12:28:04;;;;;;;;;;;;;;;38.24;21.30;101229.84;5074320;28;19913;-65
2023/09/04 12:30:29;;;;;;;;;;;;;;;38.54;21.65;101232.13;5074126;28;19912;-65